Aviation Digital Data Service (ADDS)

Output produced by METARs form (0441 UTC 31 August 2015)
found at http://aviationweather.gov/adds/metars/
 
KMIV 302320Z 3100/3124 22003KT P6SM SCT200 
     FM311500 26009KT P6SM SCT050 BKN200 
     FM312200 25004KT P6SM SCT050